sensor_id;sensor_type;location;lat;lon;timestamp;temperature;humidity
26803;DHT22;14378;51.796;5.808;2022-12-18T00:01:40;-1.40;99.90
26803;DHT22;14378;51.796;5.808;2022-12-18T00:03:41;-1.40;99.90
26803;DHT22;14378;51.796;5.808;2022-12-18T00:05:49;-1.50;99.90
26803;DHT22;14378;51.796;5.808;2022-12-18T00:07:50;-1.50;99.90
26803;DHT22;14378;51.796;5.808;2022-12-18T00:09:53;-1.50;99.90
26803;DHT22;14378;51.796;5.808;2022-12-18T00:11:53;-1.50;99.90
26803;DHT22;14378;51.796;5.808;2022-12-18T00:13:56;-1.50;99.90
26803;DHT22;14378;51.796;5.808;2022-12-18T00:16:05;-1.50;99.90
26803;DHT22;14378;51.796;5.808;2022-12-18T00:18:07;-1.60;99.90
26803;DHT22;14378;51.796;5.808;2022-12-18T00:20:08;-1.60;99.90
26803;DHT22;14378;51.796;5.808;2022-12-18T00:22:09;-1.60;99.90
26803;DHT22;14378;51.796;5.808;2022-12-18T00:24:11;-1.60;99.90
26803;DHT22;14378;51.796;5.808;2022-12-18T00:26:15;-1.70;99.90
26803;DHT22;14378;51.796;5.808;2022-12-18T00:28:16;-1.70;99.90
26803;DHT22;14378;51.796;5.808;2022-12-18T00:30:20;-1.70;99.90
26803;DHT22;14378;51.796;5.808;2022-12-18T00:32:21;-1.70;99.90
26803;DHT22;14378;51.796;5.808;2022-12-18T00:34:22;-1.80;99.90
26803;DHT22;14378;51.796;5.808;2022-12-18T00:36:27;-1.70;99.90
26803;DHT22;14378;51.796;5.808;2022-12-18T00:38:28;-1.80;99.90
26803;DHT22;14378;51.796;5.808;2022-12-18T00:40:29;-1.80;99.90
26803;DHT22;14378;51.796;5.808;2022-12-18T00:42:33;-1.80;99.90
26803;DHT22;14378;51.796;5.808;2022-12-18T00:44:52;-1.80;99.90
26803;DHT22;14378;51.796;5.808;2022-12-18T00:46:53;-1.90;99.90
26803;DHT22;14378;51.796;5.808;2022-12-18T00:48:54;-1.80;99.90
26803;DHT22;14378;51.796;5.808;2022-12-18T00:50:55;-1.80;99.90
26803;DHT22;14378;51.796;5.808;2022-12-18T00:52:56;-1.80;99.90
26803;DHT22;14378;51.796;5.808;2022-12-18T00:54:57;-1.90;99.90
26803;DHT22;14378;51.796;5.808;2022-12-18T00:56:58;-1.80;99.90
26803;DHT22;14378;51.796;5.808;2022-12-18T00:58:58;-1.90;99.90
26803;DHT22;14378;51.796;5.808;2022-12-18T01:03:10;-1.90;99.90
26803;DHT22;14378;51.796;5.808;2022-12-18T01:05:14;-2.00;99.90
26803;DHT22;14378;51.796;5.808;2022-12-18T01:07:14;-2.00;99.90
26803;DHT22;14378;51.796;5.808;2022-12-18T01:09:15;-2.00;99.90
26803;DHT22;14378;51.796;5.808;2022-12-18T01:11:18;-2.00;99.90
26803;DHT22;14378;51.796;5.808;2022-12-18T01:13:20;-2.00;99.90
26803;DHT22;14378;51.796;5.808;2022-12-18T01:15:24;-2.00;99.90
26803;DHT22;14378;51.796;5.808;2022-12-18T01:17:25;-2.00;99.90
26803;DHT22;14378;51.796;5.808;2022-12-18T01:19:25;-2.00;99.90
26803;DHT22;14378;51.796;5.808;2022-12-18T01:21:26;-2.00;99.90
26803;DHT22;14378;51.796;5.808;2022-12-18T01:23:27;-2.00;99.90
26803;DHT22;14378;51.796;5.808;2022-12-18T01:25:28;-2.00;99.90
26803;DHT22;14378;51.796;5.808;2022-12-18T01:27:29;-2.00;99.90
26803;DHT22;14378;51.796;5.808;2022-12-18T01:29:33;-2.00;99.90
26803;DHT22;14378;51.796;5.808;2022-12-18T01:31:34;-2.00;99.90
26803;DHT22;14378;51.796;5.808;2022-12-18T01:33:36;-2.00;99.90
26803;DHT22;14378;51.796;5.808;2022-12-18T01:35:41;-2.00;99.90
26803;DHT22;14378;51.796;5.808;2022-12-18T01:37:42;-2.00;99.90
26803;DHT22;14378;51.796;5.808;2022-12-18T01:39:43;-2.00;99.90
26803;DHT22;14378;51.796;5.808;2022-12-18T01:41:45;-2.00;99.90
26803;DHT22;14378;51.796;5.808;2022-12-18T01:46:43;-2.10;99.90
26803;DHT22;14378;51.796;5.808;2022-12-18T01:48:48;-2.10;99.90
26803;DHT22;14378;51.796;5.808;2022-12-18T01:50:50;-2.10;99.90
26803;DHT22;14378;51.796;5.808;2022-12-18T01:52:58;-2.10;99.90
26803;DHT22;14378;51.796;5.808;2022-12-18T01:55:00;-2.10;99.90
26803;DHT22;14378;51.796;5.808;2022-12-18T01:57:02;-2.10;99.90
26803;DHT22;14378;51.796;5.808;2022-12-18T01:59:05;-2.10;99.90
26803;DHT22;14378;51.796;5.808;2022-12-18T02:01:09;-2.10;99.90
26803;DHT22;14378;51.796;5.808;2022-12-18T02:03:10;-2.10;99.90
26803;DHT22;14378;51.796;5.808;2022-12-18T02:05:18;-2.10;99.90
26803;DHT22;14378;51.796;5.808;2022-12-18T02:12:42;-2.10;99.90
26803;DHT22;14378;51.796;5.808;2022-12-18T02:17:32;-2.20;99.90
26803;DHT22;14378;51.796;5.808;2022-12-18T02:20:14;-2.20;99.90
26803;DHT22;14378;51.796;5.808;2022-12-18T02:26:45;-2.20;99.90
26803;DHT22;14378;51.796;5.808;2022-12-18T02:30:53;-2.20;99.90
26803;DHT22;14378;51.796;5.808;2022-12-18T02:33:00;-2.20;99.90
26803;DHT22;14378;51.796;5.808;2022-12-18T02:35:05;-2.20;99.90
26803;DHT22;14378;51.796;5.808;2022-12-18T02:37:11;-2.20;99.90
26803;DHT22;14378;51.796;5.808;2022-12-18T02:39:14;-2.20;99.90
26803;DHT22;14378;51.796;5.808;2022-12-18T02:41:26;-2.20;99.90
26803;DHT22;14378;51.796;5.808;2022-12-18T02:43:29;-2.20;99.90
26803;DHT22;14378;51.796;5.808;2022-12-18T02:45:32;-2.30;99.90
26803;DHT22;14378;51.796;5.808;2022-12-18T02:47:37;-2.30;99.90
26803;DHT22;14378;51.796;5.808;2022-12-18T02:54:19;-2.30;99.90
26803;DHT22;14378;51.796;5.808;2022-12-18T02:56:28;-2.30;99.90
26803;DHT22;14378;51.796;5.808;2022-12-18T03:03:29;-2.30;99.90
26803;DHT22;14378;51.796;5.808;2022-12-18T03:06:00;-2.40;99.90
26803;DHT22;14378;51.796;5.808;2022-12-18T03:08:07;-2.40;99.90
26803;DHT22;14378;51.796;5.808;2022-12-18T03:10:16;-2.40;99.90
26803;DHT22;14378;51.796;5.808;2022-12-18T03:14:26;-2.40;99.90
26803;DHT22;14378;51.796;5.808;2022-12-18T03:16:31;-2.40;99.90
26803;DHT22;14378;51.796;5.808;2022-12-18T03:18:46;-2.40;99.90
26803;DHT22;14378;51.796;5.808;2022-12-18T03:20:50;-2.40;99.90
26803;DHT22;14378;51.796;5.808;2022-12-18T03:22:59;-2.40;99.90
26803;DHT22;14378;51.796;5.808;2022-12-18T03:25:05;-2.40;99.90
26803;DHT22;14378;51.796;5.808;2022-12-18T03:27:12;-2.40;99.90
26803;DHT22;14378;51.796;5.808;2022-12-18T03:29:22;-2.40;99.90
26803;DHT22;14378;51.796;5.808;2022-12-18T03:31:26;-2.40;99.90
26803;DHT22;14378;51.796;5.808;2022-12-18T03:34:21;-2.40;99.90
26803;DHT22;14378;51.796;5.808;2022-12-18T03:36:18;-2.40;99.90
26803;DHT22;14378;51.796;5.808;2022-12-18T03:38:19;-2.40;99.90
26803;DHT22;14378;51.796;5.808;2022-12-18T03:40:29;-2.40;99.90
26803;DHT22;14378;51.796;5.808;2022-12-18T03:45:07;-2.40;99.90
26803;DHT22;14378;51.796;5.808;2022-12-18T03:53:47;-2.40;99.90
26803;DHT22;14378;51.796;5.808;2022-12-18T03:55:53;-2.50;99.90
26803;DHT22;14378;51.796;5.808;2022-12-18T03:57:55;-2.50;99.90
26803;DHT22;14378;51.796;5.808;2022-12-18T04:00:06;-2.50;99.90
26803;DHT22;14378;51.796;5.808;2022-12-18T04:02:18;-2.50;99.90
26803;DHT22;14378;51.796;5.808;2022-12-18T04:04:21;-2.50;99.90
26803;DHT22;14378;51.796;5.808;2022-12-18T04:06:24;-2.50;99.90
26803;DHT22;14378;51.796;5.808;2022-12-18T04:08:26;-2.50;99.90
26803;DHT22;14378;51.796;5.808;2022-12-18T04:10:37;-2.50;99.90
26803;DHT22;14378;51.796;5.808;2022-12-18T04:12:38;-2.50;99.90
26803;DHT22;14378;51.796;5.808;2022-12-18T04:14:40;-2.50;99.90
26803;DHT22;14378;51.796;5.808;2022-12-18T04:16:50;-2.50;99.90
26803;DHT22;14378;51.796;5.808;2022-12-18T04:18:56;-2.50;99.90
26803;DHT22;14378;51.796;5.808;2022-12-18T04:20:59;-2.50;99.90
26803;DHT22;14378;51.796;5.808;2022-12-18T04:23:00;-2.50;99.90
26803;DHT22;14378;51.796;5.808;2022-12-18T04:25:02;-2.50;99.90
26803;DHT22;14378;51.796;5.808;2022-12-18T04:27:10;-2.50;99.90
26803;DHT22;14378;51.796;5.808;2022-12-18T04:29:17;-2.50;99.90
26803;DHT22;14378;51.796;5.808;2022-12-18T04:31:21;-2.50;99.90
26803;DHT22;14378;51.796;5.808;2022-12-18T04:33:23;-2.40;99.90
26803;DHT22;14378;51.796;5.808;2022-12-18T04:35:24;-2.40;99.90
26803;DHT22;14378;51.796;5.808;2022-12-18T04:37:25;-2.40;99.90
26803;DHT22;14378;51.796;5.808;2022-12-18T04:39:26;-2.40;99.90
26803;DHT22;14378;51.796;5.808;2022-12-18T04:41:31;-2.40;99.90
26803;DHT22;14378;51.796;5.808;2022-12-18T04:43:32;-2.40;99.90
26803;DHT22;14378;51.796;5.808;2022-12-18T04:45:33;-2.40;99.90
26803;DHT22;14378;51.796;5.808;2022-12-18T04:47:34;-2.40;99.90
26803;DHT22;14378;51.796;5.808;2022-12-18T04:49:36;-2.40;99.90
26803;DHT22;14378;51.796;5.808;2022-12-18T04:51:38;-2.40;99.90
26803;DHT22;14378;51.796;5.808;2022-12-18T04:53:39;-2.30;99.90
26803;DHT22;14378;51.796;5.808;2022-12-18T04:55:40;-2.30;99.90
26803;DHT22;14378;51.796;5.808;2022-12-18T04:57:41;-2.30;99.90
26803;DHT22;14378;51.796;5.808;2022-12-18T04:59:42;-2.30;99.90
26803;DHT22;14378;51.796;5.808;2022-12-18T05:01:43;-2.30;99.90
26803;DHT22;14378;51.796;5.808;2022-12-18T05:03:44;-2.30;99.90
26803;DHT22;14378;51.796;5.808;2022-12-18T05:05:44;-2.30;99.90
26803;DHT22;14378;51.796;5.808;2022-12-18T05:07:45;-2.30;99.90
26803;DHT22;14378;51.796;5.808;2022-12-18T05:09:46;-2.30;99.90
26803;DHT22;14378;51.796;5.808;2022-12-18T05:11:50;-2.30;99.90
26803;DHT22;14378;51.796;5.808;2022-12-18T05:13:51;-2.30;99.90
26803;DHT22;14378;51.796;5.808;2022-12-18T05:15:52;-2.30;99.90
26803;DHT22;14378;51.796;5.808;2022-12-18T05:17:53;-2.30;99.90
26803;DHT22;14378;51.796;5.808;2022-12-18T05:19:54;-2.30;99.90
26803;DHT22;14378;51.796;5.808;2022-12-18T05:21:55;-2.30;99.90
26803;DHT22;14378;51.796;5.808;2022-12-18T05:23:56;-2.30;99.90
26803;DHT22;14378;51.796;5.808;2022-12-18T05:25:59;-2.30;99.90
26803;DHT22;14378;51.796;5.808;2022-12-18T05:28:00;-2.30;99.90
26803;DHT22;14378;51.796;5.808;2022-12-18T05:30:01;-2.30;99.90
26803;DHT22;14378;51.796;5.808;2022-12-18T05:32:05;-2.30;99.90
26803;DHT22;14378;51.796;5.808;2022-12-18T05:34:06;-2.30;99.90
26803;DHT22;14378;51.796;5.808;2022-12-18T05:36:08;-2.30;99.90
26803;DHT22;14378;51.796;5.808;2022-12-18T05:38:10;-2.30;99.90
26803;DHT22;14378;51.796;5.808;2022-12-18T05:40:12;-2.30;99.90
26803;DHT22;14378;51.796;5.808;2022-12-18T05:42:13;-2.30;99.90
26803;DHT22;14378;51.796;5.808;2022-12-18T05:44:14;-2.30;99.90
26803;DHT22;14378;51.796;5.808;2022-12-18T05:46:16;-2.30;99.90
26803;DHT22;14378;51.796;5.808;2022-12-18T05:48:19;-2.30;99.90
26803;DHT22;14378;51.796;5.808;2022-12-18T05:50:20;-2.40;99.90
26803;DHT22;14378;51.796;5.808;2022-12-18T05:52:21;-2.40;99.90
26803;DHT22;14378;51.796;5.808;2022-12-18T05:54:22;-2.40;99.90
26803;DHT22;14378;51.796;5.808;2022-12-18T05:56:23;-2.40;99.90
26803;DHT22;14378;51.796;5.808;2022-12-18T05:58:24;-2.40;99.90
26803;DHT22;14378;51.796;5.808;2022-12-18T06:00:25;-2.40;99.90
26803;DHT22;14378;51.796;5.808;2022-12-18T06:02:26;-2.30;99.90
26803;DHT22;14378;51.796;5.808;2022-12-18T06:04:28;-2.40;99.90
26803;DHT22;14378;51.796;5.808;2022-12-18T06:06:30;-2.40;99.90
26803;DHT22;14378;51.796;5.808;2022-12-18T06:08:31;-2.30;99.90
26803;DHT22;14378;51.796;5.808;2022-12-18T06:10:32;-2.30;99.90
26803;DHT22;14378;51.796;5.808;2022-12-18T06:12:33;-2.40;99.90
26803;DHT22;14378;51.796;5.808;2022-12-18T06:14:34;-2.30;99.90
26803;DHT22;14378;51.796;5.808;2022-12-18T06:16:35;-2.30;99.90
26803;DHT22;14378;51.796;5.808;2022-12-18T06:18:36;-2.30;99.90
26803;DHT22;14378;51.796;5.808;2022-12-18T06:20:37;-2.30;99.90
26803;DHT22;14378;51.796;5.808;2022-12-18T06:22:40;-2.30;99.90
26803;DHT22;14378;51.796;5.808;2022-12-18T06:24:41;-2.30;99.90
26803;DHT22;14378;51.796;5.808;2022-12-18T06:26:41;-2.30;99.90
26803;DHT22;14378;51.796;5.808;2022-12-18T06:28:42;-2.30;99.90
26803;DHT22;14378;51.796;5.808;2022-12-18T06:30:44;-2.30;99.90
26803;DHT22;14378;51.796;5.808;2022-12-18T06:32:45;-2.20;99.90
26803;DHT22;14378;51.796;5.808;2022-12-18T06:34:46;-2.20;99.90
26803;DHT22;14378;51.796;5.808;2022-12-18T06:36:50;-2.20;99.90
26803;DHT22;14378;51.796;5.808;2022-12-18T06:38:52;-2.20;99.90
26803;DHT22;14378;51.796;5.808;2022-12-18T06:40:53;-2.20;99.90
26803;DHT22;14378;51.796;5.808;2022-12-18T06:42:56;-2.20;99.90
26803;DHT22;14378;51.796;5.808;2022-12-18T06:44:56;-2.20;99.90
26803;DHT22;14378;51.796;5.808;2022-12-18T06:46:57;-2.20;99.90
26803;DHT22;14378;51.796;5.808;2022-12-18T06:48:58;-2.10;99.90
26803;DHT22;14378;51.796;5.808;2022-12-18T06:50:59;-2.10;99.90
26803;DHT22;14378;51.796;5.808;2022-12-18T06:53:00;-2.10;99.90
26803;DHT22;14378;51.796;5.808;2022-12-18T06:55:01;-2.10;99.90
26803;DHT22;14378;51.796;5.808;2022-12-18T06:57:06;-2.10;99.90
26803;DHT22;14378;51.796;5.808;2022-12-18T06:59:07;-2.10;99.90
26803;DHT22;14378;51.796;5.808;2022-12-18T07:01:10;-2.10;99.90
26803;DHT22;14378;51.796;5.808;2022-12-18T07:03:12;-2.10;99.90
26803;DHT22;14378;51.796;5.808;2022-12-18T07:05:13;-2.10;99.90
26803;DHT22;14378;51.796;5.808;2022-12-18T07:07:14;-2.00;99.90
26803;DHT22;14378;51.796;5.808;2022-12-18T07:09:15;-2.00;99.90
26803;DHT22;14378;51.796;5.808;2022-12-18T07:11:16;-2.00;99.90
26803;DHT22;14378;51.796;5.808;2022-12-18T07:13:20;-2.00;99.90
26803;DHT22;14378;51.796;5.808;2022-12-18T07:15:21;-2.00;99.90
26803;DHT22;14378;51.796;5.808;2022-12-18T07:17:22;-2.00;99.90
26803;DHT22;14378;51.796;5.808;2022-12-18T07:19:23;-2.00;99.90
26803;DHT22;14378;51.796;5.808;2022-12-18T07:21:24;-2.00;99.90
26803;DHT22;14378;51.796;5.808;2022-12-18T07:23:25;-2.00;99.90
26803;DHT22;14378;51.796;5.808;2022-12-18T07:25:26;-2.00;99.90
26803;DHT22;14378;51.796;5.808;2022-12-18T07:27:26;-2.00;99.90
26803;DHT22;14378;51.796;5.808;2022-12-18T07:29:31;-2.00;99.90
26803;DHT22;14378;51.796;5.808;2022-12-18T07:31:31;-2.00;99.90
26803;DHT22;14378;51.796;5.808;2022-12-18T07:33:33;-2.00;99.90
26803;DHT22;14378;51.796;5.808;2022-12-18T07:35:35;-2.00;99.90
26803;DHT22;14378;51.796;5.808;2022-12-18T07:37:36;-2.00;99.90
26803;DHT22;14378;51.796;5.808;2022-12-18T07:39:36;-1.90;99.90
26803;DHT22;14378;51.796;5.808;2022-12-18T07:41:38;-1.90;99.90
26803;DHT22;14378;51.796;5.808;2022-12-18T07:43:43;-2.00;99.90
26803;DHT22;14378;51.796;5.808;2022-12-18T07:45:44;-1.90;99.90
26803;DHT22;14378;51.796;5.808;2022-12-18T07:47:45;-1.90;99.90
26803;DHT22;14378;51.796;5.808;2022-12-18T07:49:46;-1.90;99.90
26803;DHT22;14378;51.796;5.808;2022-12-18T07:51:50;-1.90;99.90
26803;DHT22;14378;51.796;5.808;2022-12-18T07:53:51;-1.90;99.90
26803;DHT22;14378;51.796;5.808;2022-12-18T07:56:09;-2.00;99.90
26803;DHT22;14378;51.796;5.808;2022-12-18T07:58:10;-1.90;99.90
26803;DHT22;14378;51.796;5.808;2022-12-18T08:00:13;-2.00;99.90
26803;DHT22;14378;51.796;5.808;2022-12-18T08:02:14;-2.00;99.90
26803;DHT22;14378;51.796;5.808;2022-12-18T08:04:15;-2.00;99.90
26803;DHT22;14378;51.796;5.808;2022-12-18T08:06:16;-2.00;99.90
26803;DHT22;14378;51.796;5.808;2022-12-18T08:08:17;-1.90;99.90
26803;DHT22;14378;51.796;5.808;2022-12-18T08:10:22;-1.90;99.90
26803;DHT22;14378;51.796;5.808;2022-12-18T08:12:23;-1.90;99.90
26803;DHT22;14378;51.796;5.808;2022-12-18T08:14:24;-1.80;99.90
26803;DHT22;14378;51.796;5.808;2022-12-18T08:16:25;-1.80;99.90
26803;DHT22;14378;51.796;5.808;2022-12-18T08:18:27;-1.80;99.90
26803;DHT22;14378;51.796;5.808;2022-12-18T08:20:28;-1.80;99.90
26803;DHT22;14378;51.796;5.808;2022-12-18T08:22:28;-1.70;99.90
26803;DHT22;14378;51.796;5.808;2022-12-18T08:24:29;-1.70;99.90
26803;DHT22;14378;51.796;5.808;2022-12-18T08:26:31;-1.70;99.90
26803;DHT22;14378;51.796;5.808;2022-12-18T08:28:32;-1.60;99.90
26803;DHT22;14378;51.796;5.808;2022-12-18T08:30:33;-1.60;99.90
26803;DHT22;14378;51.796;5.808;2022-12-18T08:32:34;-1.60;99.90
26803;DHT22;14378;51.796;5.808;2022-12-18T08:34:35;-1.60;99.90
26803;DHT22;14378;51.796;5.808;2022-12-18T08:36:36;-1.60;99.90
26803;DHT22;14378;51.796;5.808;2022-12-18T08:38:37;-1.50;99.90
26803;DHT22;14378;51.796;5.808;2022-12-18T08:40:40;-1.50;99.90
26803;DHT22;14378;51.796;5.808;2022-12-18T08:42:41;-1.50;99.90
26803;DHT22;14378;51.796;5.808;2022-12-18T08:45:01;-1.50;99.90
26803;DHT22;14378;51.796;5.808;2022-12-18T08:47:02;-1.40;99.90
26803;DHT22;14378;51.796;5.808;2022-12-18T08:49:03;-1.40;99.90
26803;DHT22;14378;51.796;5.808;2022-12-18T08:51:04;-1.30;99.90
26803;DHT22;14378;51.796;5.808;2022-12-18T08:53:06;-1.30;99.90
26803;DHT22;14378;51.796;5.808;2022-12-18T08:55:10;-1.30;99.90
26803;DHT22;14378;51.796;5.808;2022-12-18T08:57:11;-1.20;99.90
26803;DHT22;14378;51.796;5.808;2022-12-18T08:59:11;-1.20;99.90
26803;DHT22;14378;51.796;5.808;2022-12-18T09:01:13;-1.10;99.90
26803;DHT22;14378;51.796;5.808;2022-12-18T09:03:18;-1.10;99.90
26803;DHT22;14378;51.796;5.808;2022-12-18T09:05:19;-1.10;99.90
26803;DHT22;14378;51.796;5.808;2022-12-18T09:07:20;-1.10;99.90
26803;DHT22;14378;51.796;5.808;2022-12-18T09:09:21;-1.00;99.90
26803;DHT22;14378;51.796;5.808;2022-12-18T09:11:27;-1.00;99.90
26803;DHT22;14378;51.796;5.808;2022-12-18T09:13:28;-1.00;99.90
26803;DHT22;14378;51.796;5.808;2022-12-18T09:15:29;-0.90;99.90
26803;DHT22;14378;51.796;5.808;2022-12-18T09:17:30;-0.80;99.90
26803;DHT22;14378;51.796;5.808;2022-12-18T09:19:31;-0.80;99.90
26803;DHT22;14378;51.796;5.808;2022-12-18T09:21:34;-0.80;99.90
26803;DHT22;14378;51.796;5.808;2022-12-18T09:23:36;-0.80;99.90
26803;DHT22;14378;51.796;5.808;2022-12-18T09:25:37;-0.70;99.90
26803;DHT22;14378;51.796;5.808;2022-12-18T09:27:38;-0.70;99.90
26803;DHT22;14378;51.796;5.808;2022-12-18T09:29:39;-0.60;99.90
26803;DHT22;14378;51.796;5.808;2022-12-18T09:31:40;-0.60;99.90
26803;DHT22;14378;51.796;5.808;2022-12-18T09:33:42;-0.50;99.90
26803;DHT22;14378;51.796;5.808;2022-12-18T09:35:44;-0.50;99.90
26803;DHT22;14378;51.796;5.808;2022-12-18T09:37:45;-0.40;99.90
26803;DHT22;14378;51.796;5.808;2022-12-18T09:39:46;-0.40;99.90
26803;DHT22;14378;51.796;5.808;2022-12-18T09:41:52;-0.30;99.90
26803;DHT22;14378;51.796;5.808;2022-12-18T09:44:01;-0.30;99.90
26803;DHT22;14378;51.796;5.808;2022-12-18T09:46:11;-0.30;99.90
26803;DHT22;14378;51.796;5.808;2022-12-18T09:48:21;-0.20;99.90
26803;DHT22;14378;51.796;5.808;2022-12-18T09:50:30;-0.20;99.90
26803;DHT22;14378;51.796;5.808;2022-12-18T09:52:43;-0.20;99.90
26803;DHT22;14378;51.796;5.808;2022-12-18T09:54:56;-0.10;99.90
26803;DHT22;14378;51.796;5.808;2022-12-18T09:56:59;-0.10;99.90
26803;DHT22;14378;51.796;5.808;2022-12-18T09:59:02;-0.10;99.90
26803;DHT22;14378;51.796;5.808;2022-12-18T10:01:21;0.00;99.90
26803;DHT22;14378;51.796;5.808;2022-12-18T10:03:22;0.00;99.90
26803;DHT22;14378;51.796;5.808;2022-12-18T10:05:40;0.00;99.90
26803;DHT22;14378;51.796;5.808;2022-12-18T10:10:50;0.10;99.90
26803;DHT22;14378;51.796;5.808;2022-12-18T10:15:40;0.20;99.90
26803;DHT22;14378;51.796;5.808;2022-12-18T10:18:17;0.20;99.90
26803;DHT22;14378;51.796;5.808;2022-12-18T10:20:41;0.20;99.90
26803;DHT22;14378;51.796;5.808;2022-12-18T10:22:58;0.30;99.90
26803;DHT22;14378;51.796;5.808;2022-12-18T10:25:22;0.30;99.90
26803;DHT22;14378;51.796;5.808;2022-12-18T10:27:26;0.40;99.90
26803;DHT22;14378;51.796;5.808;2022-12-18T10:29:27;0.50;99.90
26803;DHT22;14378;51.796;5.808;2022-12-18T10:31:28;0.50;99.90
26803;DHT22;14378;51.796;5.808;2022-12-18T10:33:32;0.50;99.90
26803;DHT22;14378;51.796;5.808;2022-12-18T10:35:34;0.60;99.90
26803;DHT22;14378;51.796;5.808;2022-12-18T10:37:35;0.70;99.90
26803;DHT22;14378;51.796;5.808;2022-12-18T10:39:37;0.70;99.90
26803;DHT22;14378;51.796;5.808;2022-12-18T10:41:38;0.80;99.90
26803;DHT22;14378;51.796;5.808;2022-12-18T10:43:40;0.80;99.90
26803;DHT22;14378;51.796;5.808;2022-12-18T10:45:42;0.80;99.90
26803;DHT22;14378;51.796;5.808;2022-12-18T10:47:50;0.80;99.90
26803;DHT22;14378;51.796;5.808;2022-12-18T10:49:52;0.90;99.90
26803;DHT22;14378;51.796;5.808;2022-12-18T10:52:25;0.90;99.90
26803;DHT22;14378;51.796;5.808;2022-12-18T10:54:28;0.90;99.90
26803;DHT22;14378;51.796;5.808;2022-12-18T10:56:31;1.00;99.90
26803;DHT22;14378;51.796;5.808;2022-12-18T10:58:36;1.00;99.90
26803;DHT22;14378;51.796;5.808;2022-12-18T11:00:38;1.10;99.90
26803;DHT22;14378;51.796;5.808;2022-12-18T11:02:42;1.10;99.90
26803;DHT22;14378;51.796;5.808;2022-12-18T11:04:50;1.10;99.90
26803;DHT22;14378;51.796;5.808;2022-12-18T11:07:06;1.20;99.90
26803;DHT22;14378;51.796;5.808;2022-12-18T11:09:22;1.20;99.90
26803;DHT22;14378;51.796;5.808;2022-12-18T11:11:25;1.20;99.90
26803;DHT22;14378;51.796;5.808;2022-12-18T11:13:29;1.20;99.90
26803;DHT22;14378;51.796;5.808;2022-12-18T11:15:30;1.20;99.90
26803;DHT22;14378;51.796;5.808;2022-12-18T11:17:35;1.30;99.90
26803;DHT22;14378;51.796;5.808;2022-12-18T11:19:38;1.20;99.90
26803;DHT22;14378;51.796;5.808;2022-12-18T11:21:46;1.30;99.90
26803;DHT22;14378;51.796;5.808;2022-12-18T11:23:53;1.30;99.90
26803;DHT22;14378;51.796;5.808;2022-12-18T11:26:01;1.30;99.90
26803;DHT22;14378;51.796;5.808;2022-12-18T11:28:39;1.30;99.90
26803;DHT22;14378;51.796;5.808;2022-12-18T11:30:45;1.30;99.90
26803;DHT22;14378;51.796;5.808;2022-12-18T11:32:53;1.30;99.90
26803;DHT22;14378;51.796;5.808;2022-12-18T11:35:22;1.30;99.90
26803;DHT22;14378;51.796;5.808;2022-12-18T11:37:26;1.30;99.90
26803;DHT22;14378;51.796;5.808;2022-12-18T11:39:42;1.30;99.90
26803;DHT22;14378;51.796;5.808;2022-12-18T11:42:12;1.40;99.90
26803;DHT22;14378;51.796;5.808;2022-12-18T11:44:22;1.40;99.90
26803;DHT22;14378;51.796;5.808;2022-12-18T11:46:36;1.50;99.90
26803;DHT22;14378;51.796;5.808;2022-12-18T11:48:44;1.50;99.90
26803;DHT22;14378;51.796;5.808;2022-12-18T11:50:53;1.60;99.90
26803;DHT22;14378;51.796;5.808;2022-12-18T11:52:55;1.60;99.90
26803;DHT22;14378;51.796;5.808;2022-12-18T11:54:59;1.60;99.90
26803;DHT22;14378;51.796;5.808;2022-12-18T11:57:25;1.70;99.90
26803;DHT22;14378;51.796;5.808;2022-12-18T12:06:24;1.80;99.90
26803;DHT22;14378;51.796;5.808;2022-12-18T12:09:11;1.80;99.90
26803;DHT22;14378;51.796;5.808;2022-12-18T12:13:53;1.90;99.90
26803;DHT22;14378;51.796;5.808;2022-12-18T12:16:03;1.90;99.90
26803;DHT22;14378;51.796;5.808;2022-12-18T12:20:50;2.00;99.90
26803;DHT22;14378;51.796;5.808;2022-12-18T12:27:21;2.00;99.90
26803;DHT22;14378;51.796;5.808;2022-12-18T12:39:01;2.10;99.90
26803;DHT22;14378;51.796;5.808;2022-12-18T12:41:08;2.10;99.90
26803;DHT22;14378;51.796;5.808;2022-12-18T12:43:48;2.10;99.90
26803;DHT22;14378;51.796;5.808;2022-12-18T12:45:57;2.10;99.90
26803;DHT22;14378;51.796;5.808;2022-12-18T12:48:33;2.10;99.90
26803;DHT22;14378;51.796;5.808;2022-12-18T12:50:35;2.10;99.90
26803;DHT22;14378;51.796;5.808;2022-12-18T12:52:59;2.20;99.90
26803;DHT22;14378;51.796;5.808;2022-12-18T12:55:07;2.20;99.90
26803;DHT22;14378;51.796;5.808;2022-12-18T12:57:38;2.20;99.90
26803;DHT22;14378;51.796;5.808;2022-12-18T13:04:36;2.20;99.90
26803;DHT22;14378;51.796;5.808;2022-12-18T13:07:35;2.20;99.90
26803;DHT22;14378;51.796;5.808;2022-12-18T13:09:14;2.20;99.90
26803;DHT22;14378;51.796;5.808;2022-12-18T13:11:30;2.10;99.90
26803;DHT22;14378;51.796;5.808;2022-12-18T13:13:55;2.10;99.90
26803;DHT22;14378;51.796;5.808;2022-12-18T13:16:05;2.10;99.90
26803;DHT22;14378;51.796;5.808;2022-12-18T13:20:15;2.10;99.90
26803;DHT22;14378;51.796;5.808;2022-12-18T13:22:24;2.10;99.90
26803;DHT22;14378;51.796;5.808;2022-12-18T13:24:28;2.10;99.90
26803;DHT22;14378;51.796;5.808;2022-12-18T13:26:31;2.10;99.90
26803;DHT22;14378;51.796;5.808;2022-12-18T13:32:35;2.10;99.90
26803;DHT22;14378;51.796;5.808;2022-12-18T13:34:37;2.10;99.90
26803;DHT22;14378;51.796;5.808;2022-12-18T13:36:38;2.10;99.90
26803;DHT22;14378;51.796;5.808;2022-12-18T13:38:39;2.10;99.90
26803;DHT22;14378;51.796;5.808;2022-12-18T13:42:50;2.10;99.90
26803;DHT22;14378;51.796;5.808;2022-12-18T13:45:38;2.10;99.90
26803;DHT22;14378;51.796;5.808;2022-12-18T13:47:39;2.00;99.90
26803;DHT22;14378;51.796;5.808;2022-12-18T13:49:44;2.00;99.90
26803;DHT22;14378;51.796;5.808;2022-12-18T13:51:50;2.00;99.90
26803;DHT22;14378;51.796;5.808;2022-12-18T13:53:57;2.00;99.90
26803;DHT22;14378;51.796;5.808;2022-12-18T13:56:02;2.00;99.90
26803;DHT22;14378;51.796;5.808;2022-12-18T13:58:05;2.10;99.90
26803;DHT22;14378;51.796;5.808;2022-12-18T14:00:27;2.10;99.90
26803;DHT22;14378;51.796;5.808;2022-12-18T14:02:29;2.20;99.90
26803;DHT22;14378;51.796;5.808;2022-12-18T14:04:32;2.20;99.90
26803;DHT22;14378;51.796;5.808;2022-12-18T14:06:34;2.20;99.90
26803;DHT22;14378;51.796;5.808;2022-12-18T14:08:39;2.20;99.90
26803;DHT22;14378;51.796;5.808;2022-12-18T14:10:42;2.10;99.90
26803;DHT22;14378;51.796;5.808;2022-12-18T14:12:52;2.20;99.90
26803;DHT22;14378;51.796;5.808;2022-12-18T14:14:57;2.20;99.90
26803;DHT22;14378;51.796;5.808;2022-12-18T14:17:02;2.20;99.90
26803;DHT22;14378;51.796;5.808;2022-12-18T14:19:02;2.20;99.90
26803;DHT22;14378;51.796;5.808;2022-12-18T14:21:05;2.20;99.90
26803;DHT22;14378;51.796;5.808;2022-12-18T14:23:35;2.10;99.90
26803;DHT22;14378;51.796;5.808;2022-12-18T14:25:36;2.10;99.90
26803;DHT22;14378;51.796;5.808;2022-12-18T14:27:45;2.10;99.90
26803;DHT22;14378;51.796;5.808;2022-12-18T14:29:51;2.10;99.90
26803;DHT22;14378;51.796;5.808;2022-12-18T14:32:24;2.10;99.90
26803;DHT22;14378;51.796;5.808;2022-12-18T14:34:27;2.10;99.90
26803;DHT22;14378;51.796;5.808;2022-12-18T14:36:29;2.10;99.90
26803;DHT22;14378;51.796;5.808;2022-12-18T14:38:36;2.10;99.90
26803;DHT22;14378;51.796;5.808;2022-12-18T14:40:37;2.20;99.90